createdAt,value
2022-09-20T00:01:38.362Z,3.50
2022-09-20T00:04:09.537Z,3.28
2022-09-20T00:06:39.695Z,3.30
2022-09-20T00:09:09.654Z,2.92
2022-09-20T00:11:40.392Z,3.65
2022-09-20T00:14:10.601Z,3.25
2022-09-20T00:16:42.290Z,3.28
2022-09-20T00:19:23.833Z,3.40
2022-09-20T00:21:53.743Z,3.17
2022-09-20T00:24:23.631Z,3.38
2022-09-20T00:26:53.971Z,3.38
2022-09-20T00:29:24.013Z,3.38
2022-09-20T00:31:53.996Z,3.10
2022-09-20T00:34:41.950Z,3.38
2022-09-20T00:37:11.904Z,3.25
2022-09-20T00:39:41.797Z,2.88
2022-09-20T00:42:15.148Z,3.13
2022-09-20T00:47:40.120Z,3.17
2022-09-20T00:50:17.545Z,3.53
2022-09-20T00:52:48.380Z,3.25
2022-09-20T00:55:18.330Z,3.65
2022-09-20T00:57:48.278Z,3.83
2022-09-20T01:00:18.270Z,3.60
2022-09-20T01:02:53.389Z,3.80
2022-09-20T01:05:23.394Z,3.75
2022-09-20T01:07:53.339Z,3.35
2022-09-20T01:10:23.327Z,3.30
2022-09-20T01:12:53.931Z,3.33
2022-09-20T01:15:24.568Z,3.33
2022-09-20T01:17:55.364Z,3.35
2022-09-20T01:20:44.022Z,3.28
2022-09-20T01:23:41.545Z,3.47
2022-09-20T01:26:30.418Z,3.50
2022-09-20T01:29:21.511Z,3.42
2022-09-20T01:31:59.095Z,3.10
2022-09-20T01:34:35.434Z,3.50
2022-09-20T01:37:26.177Z,3.40
2022-09-20T01:39:59.903Z,3.38
2022-09-20T01:42:35.408Z,3.53
2022-09-20T01:45:12.743Z,3.35
2022-09-20T01:48:01.130Z,3.33
2022-09-20T01:50:57.390Z,3.33
2022-09-20T01:53:59.262Z,3.60
2022-09-20T01:57:01.001Z,3.30
2022-09-20T01:59:39.947Z,3.33
2022-09-20T02:02:11.516Z,3.50
2022-09-20T02:05:17.881Z,3.35
2022-09-20T02:08:06.422Z,3.20
2022-09-20T02:10:43.451Z,3.20
2022-09-20T02:13:49.904Z,3.20
2022-09-20T02:16:49.948Z,3.28
2022-09-20T02:19:34.742Z,3.72
2022-09-20T02:22:17.035Z,4.05
2022-09-20T02:25:06.736Z,3.45
2022-09-20T02:31:11.211Z,3.40
2022-09-20T02:33:46.980Z,4.78
2022-09-20T02:36:36.798Z,4.25
2022-09-20T02:39:22.919Z,6.05
2022-09-20T02:42:13.048Z,8.18
2022-09-20T02:45:06.198Z,7.22
2022-09-20T02:47:44.239Z,7.05
2022-09-20T02:50:26.852Z,6.72
2022-09-20T02:56:13.760Z,6.22
2022-09-20T02:59:05.463Z,6.68
2022-09-20T03:01:53.703Z,6.07
2022-09-20T03:04:42.040Z,6.53
2022-09-20T03:07:16.549Z,6.53
2022-09-20T03:10:04.540Z,6.57
2022-09-20T03:12:48.149Z,5.63
2022-09-20T03:18:20.988Z,6.43
2022-09-20T03:20:58.222Z,6.05
2022-09-20T03:23:46.618Z,5.55
2022-09-20T03:26:43.414Z,5.60
2022-09-20T03:29:37.492Z,6.32
2022-09-20T03:32:47.782Z,5.97
2022-09-20T03:35:32.942Z,5.30
2022-09-20T03:38:16.165Z,5.38
2022-09-20T03:40:57.738Z,5.15
2022-09-20T03:43:56.503Z,5.72
2022-09-20T03:46:30.021Z,5.45
2022-09-20T03:49:21.947Z,5.07
2022-09-20T03:52:15.350Z,5.07
2022-09-20T03:55:09.656Z,5.60
2022-09-20T03:57:48.891Z,5.38
2022-09-20T04:00:40.966Z,5.43
2022-09-20T04:03:23.302Z,5.22
2022-09-20T04:06:22.465Z,5.18
2022-09-20T04:08:52.491Z,5.25
2022-09-20T04:12:06.910Z,5.40
2022-09-20T04:17:44.498Z,6.00
2022-09-20T04:20:49.631Z,4.53
2022-09-20T04:23:37.469Z,5.15
2022-09-20T04:26:07.716Z,5.05
2022-09-20T04:28:49.005Z,5.10
2022-09-20T04:31:29.443Z,5.30
2022-09-20T04:33:59.582Z,5.13
2022-09-20T04:36:39.223Z,4.85
2022-09-20T04:39:27.262Z,5.15
2022-09-20T04:42:35.234Z,5.00
2022-09-20T04:45:38.404Z,5.22
2022-09-20T04:48:39.390Z,5.10
2022-09-20T04:51:35.508Z,4.88
2022-09-20T04:54:27.155Z,4.70
2022-09-20T04:57:15.237Z,5.22
2022-09-20T05:00:09.858Z,4.88
2022-09-20T05:03:24.321Z,4.72
2022-09-20T05:09:19.429Z,4.78
2022-09-20T05:12:15.207Z,5.25
2022-09-20T05:15:09.270Z,4.32
2022-09-20T05:17:47.175Z,5.40
2022-09-20T05:20:20.217Z,4.32
2022-09-20T05:22:59.593Z,5.30
2022-09-20T05:25:53.258Z,4.75
2022-09-20T05:28:41.861Z,4.50
2022-09-20T05:31:19.985Z,4.43
2022-09-20T05:34:01.908Z,4.97
2022-09-20T05:36:50.408Z,4.65
2022-09-20T05:39:38.913Z,4.78
2022-09-20T05:42:30.435Z,4.05
2022-09-20T05:45:22.691Z,4.05
2022-09-20T05:48:08.082Z,4.43
2022-09-20T05:50:41.297Z,3.85
2022-09-20T05:53:20.266Z,4.50
2022-09-20T05:56:30.306Z,4.05
2022-09-20T05:59:15.529Z,3.83
2022-09-20T06:02:09.951Z,4.10
2022-09-20T06:04:54.463Z,4.45
2022-09-20T06:07:59.310Z,3.78
2022-09-20T06:10:32.271Z,4.32
2022-09-20T06:13:26.617Z,4.28
2022-09-20T06:16:07.200Z,4.53
2022-09-20T06:18:59.572Z,4.07
2022-09-20T06:22:00.889Z,4.15
2022-09-20T06:24:51.540Z,4.45
2022-09-20T06:27:25.520Z,4.38
2022-09-20T06:29:57.699Z,3.83
2022-09-20T06:32:28.116Z,3.55
2022-09-20T06:34:58.066Z,4.00
2022-09-20T06:37:49.263Z,3.65
2022-09-20T06:40:45.077Z,3.70
2022-09-20T06:43:15.710Z,4.22
2022-09-20T06:45:46.041Z,4.15
2022-09-20T06:48:16.730Z,4.22
2022-09-20T06:50:47.498Z,4.47
2022-09-20T06:53:22.838Z,4.28
2022-09-20T06:55:53.990Z,4.22
2022-09-20T06:58:23.960Z,4.10
2022-09-20T07:00:55.081Z,3.88
2022-09-20T07:03:25.164Z,3.47
2022-09-20T07:05:55.417Z,3.90
2022-09-20T07:08:25.352Z,4.30
2022-09-20T07:10:55.822Z,3.70
2022-09-20T07:13:26.513Z,3.47
2022-09-20T07:16:03.393Z,3.92
2022-09-20T07:18:34.764Z,3.92
2022-09-20T07:21:04.717Z,3.63
2022-09-20T07:23:34.722Z,3.45
2022-09-20T07:26:04.704Z,3.95
2022-09-20T07:28:35.983Z,3.72
2022-09-20T07:31:06.023Z,3.85
2022-09-20T07:33:36.009Z,3.78
2022-09-20T07:36:06.292Z,4.20
2022-09-20T07:38:36.284Z,3.33
2022-09-20T07:41:06.544Z,4.03
2022-09-20T07:43:37.676Z,3.75
2022-09-20T07:46:08.336Z,4.15
2022-09-20T07:48:38.393Z,3.88
2022-09-20T07:51:10.222Z,3.80
2022-09-20T07:53:40.251Z,3.78
2022-09-20T07:56:14.023Z,3.53
2022-09-20T07:58:50.078Z,3.88
2022-09-20T08:01:23.800Z,3.15
2022-09-20T08:03:54.331Z,3.33
2022-09-20T08:06:24.705Z,3.90
2022-09-20T08:08:55.879Z,4.10
2022-09-20T08:11:28.052Z,4.00
2022-09-20T08:14:16.588Z,3.40
2022-09-20T08:16:51.624Z,3.50
2022-09-20T08:19:23.169Z,3.47
2022-09-20T08:21:56.766Z,3.20
2022-09-20T08:24:27.965Z,3.10
2022-09-20T08:26:57.995Z,4.07
2022-09-20T08:29:27.914Z,3.83
2022-09-20T08:31:59.466Z,3.50
2022-09-20T08:34:29.579Z,3.80
2022-09-20T08:36:59.585Z,2.85
2022-09-20T08:42:43.795Z,3.70
2022-09-20T08:45:23.224Z,4.03
2022-09-20T08:48:06.764Z,3.40
2022-09-20T08:50:38.004Z,3.92
2022-09-20T08:53:07.882Z,3.47
2022-09-20T08:55:41.470Z,3.33
2022-09-20T08:58:15.813Z,3.75
2022-09-20T09:00:48.329Z,3.47
2022-09-20T09:03:18.721Z,3.63
2022-09-20T09:05:53.918Z,4.05
2022-09-20T09:08:28.239Z,4.55
2022-09-20T09:10:59.575Z,3.22
2022-09-20T09:13:49.044Z,3.40
2022-09-20T09:16:27.325Z,3.28
2022-09-20T09:19:00.327Z,2.80
2022-09-20T09:21:31.002Z,3.28
2022-09-20T09:24:05.501Z,3.30
2022-09-20T09:26:40.803Z,3.70
2022-09-20T09:29:20.098Z,2.60
2022-09-20T09:31:51.727Z,3.85
2022-09-20T09:34:35.176Z,3.08
2022-09-20T09:37:05.378Z,3.90
2022-09-20T09:39:39.276Z,3.60
2022-09-20T09:42:23.557Z,3.25
2022-09-20T09:44:53.448Z,3.53
2022-09-20T09:47:30.023Z,3.22
2022-09-20T09:50:03.911Z,3.25
2022-09-20T09:52:37.896Z,3.22
2022-09-20T09:55:08.748Z,3.65
2022-09-20T09:58:07.650Z,3.17
2022-09-20T10:00:44.139Z,2.90
2022-09-20T10:03:28.873Z,3.20
2022-09-20T10:06:21.026Z,2.42
2022-09-20T10:09:06.895Z,2.90
2022-09-20T10:12:02.040Z,2.65
2022-09-20T10:15:19.965Z,2.70
2022-09-20T10:18:30.764Z,2.45
2022-09-20T10:21:26.919Z,2.40
2022-09-20T10:24:23.217Z,2.22
2022-09-20T10:27:07.364Z,2.10
2022-09-20T10:29:56.136Z,2.33
2022-09-20T10:32:44.450Z,3.05
2022-09-20T10:35:46.616Z,1.98
2022-09-20T10:38:24.634Z,2.10
2022-09-20T10:41:47.888Z,2.60
2022-09-20T10:44:20.648Z,2.45
2022-09-20T10:47:08.828Z,2.65
2022-09-20T10:49:58.496Z,2.25
2022-09-20T10:52:32.703Z,2.47
2022-09-20T10:55:28.830Z,2.45
2022-09-20T10:58:05.251Z,2.22
2022-09-20T11:01:04.105Z,2.47
2022-09-20T11:03:36.813Z,2.70
2022-09-20T11:06:11.025Z,2.42
2022-09-20T11:08:41.223Z,2.30
2022-09-20T11:11:13.593Z,2.30
2022-09-20T11:14:01.788Z,2.38
2022-09-20T11:16:47.021Z,2.65
2022-09-20T11:19:24.635Z,2.20
2022-09-20T11:22:16.221Z,2.75
2022-09-20T11:24:50.931Z,2.20
2022-09-20T11:27:33.371Z,2.75
2022-09-20T11:30:06.299Z,2.58
2022-09-20T11:32:50.299Z,2.90
2022-09-20T11:35:36.506Z,2.25
2022-09-20T11:38:35.706Z,2.35
2022-09-20T11:41:30.027Z,2.33
2022-09-20T11:44:09.344Z,2.47
2022-09-20T11:47:07.959Z,2.50
2022-09-20T11:50:15.040Z,2.35
2022-09-20T11:53:03.096Z,2.85
2022-09-20T11:55:39.061Z,3.10
2022-09-20T11:58:23.613Z,2.92
2022-09-20T12:00:56.369Z,2.85
2022-09-20T12:03:39.266Z,2.72
2022-09-20T12:06:14.126Z,3.08
2022-09-20T12:08:44.243Z,2.72
2022-09-20T12:11:15.502Z,3.00
2022-09-20T12:13:54.630Z,2.78
2022-09-20T12:16:44.687Z,2.65
2022-09-20T12:19:38.002Z,2.92
2022-09-20T12:22:10.927Z,2.70
2022-09-20T12:24:45.096Z,3.30
2022-09-20T12:27:45.021Z,2.92
2022-09-20T12:30:19.495Z,2.90
2022-09-20T12:32:58.454Z,2.78
2022-09-20T12:35:40.777Z,2.83
2022-09-20T12:38:22.661Z,3.20
2022-09-20T12:41:08.390Z,3.13
2022-09-20T12:43:55.014Z,2.72
2022-09-20T12:46:39.142Z,2.83
2022-09-20T12:49:53.450Z,3.00
2022-09-20T12:55:46.921Z,3.30
2022-09-20T12:58:16.867Z,3.50
2022-09-20T13:01:01.945Z,3.35
2022-09-20T13:03:45.544Z,3.65
2022-09-20T13:06:21.852Z,3.45
2022-09-20T13:09:02.368Z,2.80
2022-09-20T13:11:46.880Z,2.78
2022-09-20T13:14:26.526Z,3.05
2022-09-20T13:17:24.588Z,3.88
2022-09-20T13:19:54.790Z,3.00
2022-09-20T13:22:31.477Z,3.47
2022-09-20T13:25:06.651Z,3.25
2022-09-20T13:27:39.293Z,3.58
2022-09-20T13:30:25.351Z,3.47
2022-09-20T13:32:56.286Z,3.45
2022-09-20T13:35:33.652Z,3.47
2022-09-20T13:38:08.891Z,3.15
2022-09-20T13:40:50.984Z,3.60
2022-09-20T13:43:31.744Z,4.05
2022-09-20T13:46:08.860Z,3.20
2022-09-20T13:48:39.097Z,3.33
2022-09-20T13:51:25.198Z,3.72
2022-09-20T13:53:55.354Z,3.63
2022-09-20T13:56:27.540Z,3.85
2022-09-20T13:59:00.066Z,4.00
2022-09-20T14:01:36.942Z,4.23
2022-09-20T14:04:26.841Z,3.72
2022-09-20T14:06:57.846Z,3.97
2022-09-20T14:09:35.820Z,4.38
2022-09-20T14:12:06.534Z,4.00
2022-09-20T14:14:37.541Z,4.10
2022-09-20T14:17:08.070Z,3.85
2022-09-20T14:19:41.991Z,3.80
2022-09-20T14:22:24.652Z,4.18
2022-09-20T14:25:23.165Z,4.00
2022-09-20T14:28:22.184Z,3.67
2022-09-20T14:30:53.663Z,2.63
2022-09-20T14:33:24.649Z,3.17
2022-09-20T14:35:54.642Z,3.22
2022-09-20T14:38:26.766Z,3.17
2022-09-20T14:40:58.670Z,3.65
2022-09-20T14:43:32.775Z,3.17
2022-09-20T14:46:17.485Z,3.47
2022-09-20T14:48:47.671Z,3.72
2022-09-20T14:51:22.530Z,3.40
2022-09-20T14:54:07.896Z,4.07
2022-09-20T14:56:50.403Z,3.70
2022-09-20T14:59:22.148Z,3.45
2022-09-20T15:02:11.584Z,4.18
2022-09-20T15:04:42.474Z,3.80
2022-09-20T15:07:16.388Z,4.25
2022-09-20T15:09:47.070Z,4.07
2022-09-20T15:12:21.747Z,3.70
2022-09-20T15:14:51.749Z,4.75
2022-09-20T15:17:22.883Z,3.65
2022-09-20T15:19:53.087Z,3.83
2022-09-20T15:22:23.271Z,4.53
2022-09-20T15:24:53.337Z,4.28
2022-09-20T15:27:28.067Z,3.83
2022-09-20T15:29:58.409Z,4.97
2022-09-20T15:32:28.695Z,4.47
2022-09-20T15:34:58.732Z,4.05
2022-09-20T15:37:28.858Z,4.68
2022-09-20T15:39:59.473Z,4.68
2022-09-20T15:42:30.299Z,4.05
2022-09-20T15:45:00.343Z,3.88
2022-09-20T15:47:30.499Z,4.47
2022-09-20T15:50:01.071Z,4.38
2022-09-20T15:52:35.628Z,4.13
2022-09-20T15:55:06.188Z,4.28
2022-09-20T15:57:36.602Z,4.57
2022-09-20T16:00:07.000Z,4.20
2022-09-20T16:02:42.058Z,4.88
2022-09-20T16:05:14.470Z,4.53
2022-09-20T16:07:44.502Z,4.70
2022-09-20T16:10:15.315Z,4.25
2022-09-20T16:12:45.336Z,4.80
2022-09-20T16:15:15.330Z,4.50
2022-09-20T16:18:03.179Z,4.47
2022-09-20T16:20:33.107Z,4.97
2022-09-20T16:23:03.177Z,4.05
2022-09-20T16:25:33.469Z,5.22
2022-09-20T16:28:03.750Z,4.22
2022-09-20T16:30:33.686Z,4.10
2022-09-20T16:33:07.509Z,4.28
2022-09-20T16:35:37.508Z,3.83
2022-09-20T16:38:07.710Z,4.70
2022-09-20T16:40:37.926Z,4.18
2022-09-20T16:43:10.669Z,4.80
2022-09-20T16:45:40.995Z,4.15
2022-09-20T16:48:10.974Z,4.65
2022-09-20T16:50:40.984Z,4.97
2022-09-20T16:53:10.908Z,5.40
2022-09-20T16:55:44.916Z,4.78
2022-09-20T16:58:14.800Z,4.40
2022-09-20T17:00:44.873Z,5.00
2022-09-20T17:03:14.895Z,4.47
2022-09-20T17:05:44.770Z,4.50
2022-09-20T17:08:14.685Z,4.82
2022-09-20T17:10:45.792Z,4.80
2022-09-20T17:13:16.661Z,4.75
2022-09-20T17:15:46.682Z,4.28
2022-09-20T17:18:16.626Z,4.60
2022-09-20T17:20:46.786Z,5.28
2022-09-20T17:23:18.009Z,5.32
2022-09-20T17:25:49.288Z,4.82
2022-09-20T17:28:19.311Z,4.50
2022-09-20T17:30:49.205Z,4.95
2022-09-20T17:33:19.247Z,5.40
2022-09-20T17:35:55.128Z,4.95
2022-09-20T17:38:25.138Z,4.85
2022-09-20T17:41:21.695Z,4.72
2022-09-20T17:43:55.715Z,4.20
2022-09-20T17:46:27.185Z,4.68
2022-09-20T17:48:58.135Z,4.20
2022-09-20T17:51:36.322Z,4.30
2022-09-20T17:54:07.096Z,5.30
2022-09-20T17:56:37.398Z,4.85
2022-09-20T17:59:08.526Z,4.25
2022-09-20T18:01:38.972Z,4.43
2022-09-20T18:04:09.792Z,4.93
2022-09-20T18:06:45.390Z,4.55
2022-09-20T18:09:23.112Z,5.60
2022-09-20T18:11:54.391Z,4.65
2022-09-20T18:14:29.231Z,4.72
2022-09-20T18:17:01.971Z,4.50
2022-09-20T18:19:35.688Z,4.00
2022-09-20T18:22:06.108Z,5.20
2022-09-20T18:24:36.396Z,5.03
2022-09-20T18:27:06.485Z,4.47
2022-09-20T18:29:38.591Z,4.90
2022-09-20T18:32:09.865Z,4.95
2022-09-20T18:34:40.808Z,5.00
2022-09-20T18:37:14.562Z,4.72
2022-09-20T18:39:45.317Z,5.22
2022-09-20T18:42:15.244Z,5.07
2022-09-20T18:44:46.609Z,4.63
2022-09-20T18:47:17.202Z,4.38
2022-09-20T18:49:48.032Z,4.70
2022-09-20T18:52:19.225Z,5.03
2022-09-20T18:54:49.754Z,4.53
2022-09-20T18:57:20.074Z,4.63
2022-09-20T18:59:55.209Z,4.88
2022-09-20T19:02:33.568Z,4.15
2022-09-20T19:05:44.267Z,5.05
2022-09-20T19:08:29.136Z,4.70
2022-09-20T19:11:02.775Z,4.18
2022-09-20T19:13:39.240Z,4.85
2022-09-20T19:16:22.740Z,4.30
2022-09-20T19:19:16.152Z,5.15
2022-09-20T19:22:20.032Z,5.10
2022-09-20T19:25:07.732Z,5.15
2022-09-20T19:27:37.941Z,4.40
2022-09-20T19:30:08.522Z,4.13
2022-09-20T19:32:38.736Z,4.90
2022-09-20T19:35:20.463Z,4.30
2022-09-20T19:37:56.258Z,4.22
2022-09-20T19:40:45.388Z,5.55
2022-09-20T19:43:55.295Z,4.18
2022-09-20T19:46:45.269Z,4.40
2022-09-20T19:49:16.373Z,4.55
2022-09-20T19:51:46.811Z,5.15
2022-09-20T19:54:17.183Z,4.05
2022-09-20T19:56:57.065Z,4.15
2022-09-20T19:59:28.637Z,4.45
2022-09-20T20:01:59.520Z,4.07
2022-09-20T20:04:29.771Z,3.83
2022-09-20T20:07:07.745Z,4.05
2022-09-20T20:09:42.459Z,3.85
2022-09-20T20:12:16.127Z,4.35
2022-09-20T20:15:07.534Z,4.03
2022-09-20T20:18:18.908Z,3.75
2022-09-20T20:20:51.969Z,3.50
2022-09-20T20:23:44.196Z,3.95
2022-09-20T20:26:24.704Z,4.00
2022-09-20T20:28:54.835Z,3.90
2022-09-20T20:31:24.851Z,3.50
2022-09-20T20:33:55.930Z,3.45
2022-09-20T20:36:25.895Z,3.50
2022-09-20T20:38:56.239Z,3.67
2022-09-20T20:41:26.247Z,2.67
2022-09-20T20:43:57.430Z,3.63
2022-09-20T20:46:27.516Z,3.05
2022-09-20T20:48:57.993Z,3.53
2022-09-20T20:51:28.448Z,3.40
2022-09-20T20:53:59.589Z,2.92
2022-09-20T20:56:31.042Z,2.85
2022-09-20T20:59:01.999Z,3.30
2022-09-20T21:01:34.456Z,3.20
2022-09-20T21:04:05.813Z,3.10
2022-09-20T21:06:37.911Z,2.83
2022-09-20T21:09:08.174Z,3.20
2022-09-20T21:11:39.643Z,2.90
2022-09-20T21:14:10.214Z,2.95
2022-09-20T21:16:44.066Z,3.17
2022-09-20T21:19:19.377Z,3.33
2022-09-20T21:21:49.548Z,2.85
2022-09-20T21:24:19.596Z,2.90
2022-09-20T21:26:49.722Z,2.90
2022-09-20T21:29:23.018Z,3.00
2022-09-20T21:31:53.359Z,2.75
2022-09-20T21:34:23.286Z,2.92
2022-09-20T21:36:53.189Z,2.75
2022-09-20T21:39:23.149Z,3.08
2022-09-20T21:41:53.675Z,2.80
2022-09-20T21:44:24.116Z,2.83
2022-09-20T21:46:54.068Z,3.10
2022-09-20T21:49:24.423Z,2.90
2022-09-20T21:51:54.956Z,2.50
2022-09-20T21:54:25.330Z,2.70
2022-09-20T21:56:57.101Z,2.40
2022-09-20T21:59:28.026Z,2.60
2022-09-20T22:01:59.924Z,2.65
2022-09-20T22:04:30.632Z,2.50
2022-09-20T22:07:01.159Z,2.97
2022-09-20T22:09:31.325Z,2.42
2022-09-20T22:12:01.905Z,2.47
2022-09-20T22:14:32.103Z,2.58
2022-09-20T22:17:02.261Z,2.40
2022-09-20T22:19:33.341Z,2.47
2022-09-20T22:22:04.606Z,2.60
2022-09-20T22:24:34.976Z,2.30
2022-09-20T22:27:05.244Z,2.40
2022-09-20T22:29:35.247Z,2.88
2022-09-20T22:32:06.002Z,2.38
2022-09-20T22:34:36.802Z,2.50
2022-09-20T22:37:07.125Z,2.00
2022-09-20T22:39:37.040Z,2.25
2022-09-20T22:42:07.764Z,2.35
2022-09-20T22:44:37.735Z,2.63
2022-09-20T22:47:07.795Z,2.40
2022-09-20T22:49:37.748Z,2.40
2022-09-20T22:52:07.777Z,2.60
2022-09-20T22:54:37.697Z,2.22
2022-09-20T22:57:08.103Z,2.30
2022-09-20T22:59:38.074Z,2.00
2022-09-20T23:02:07.984Z,2.20
2022-09-20T23:04:38.602Z,2.08
2022-09-20T23:07:08.977Z,2.22
2022-09-20T23:09:39.020Z,2.20
2022-09-20T23:12:09.231Z,1.60
2022-09-20T23:14:39.565Z,2.05
2022-09-20T23:17:09.543Z,2.08
2022-09-20T23:19:39.495Z,1.75
2022-09-20T23:22:09.797Z,1.80
2022-09-20T23:24:39.773Z,2.03
2022-09-20T23:27:10.000Z,2.00
2022-09-20T23:29:40.012Z,2.13
2022-09-20T23:32:10.317Z,1.90
2022-09-20T23:34:40.297Z,1.90
2022-09-20T23:37:10.423Z,1.90
2022-09-20T23:39:42.194Z,2.00
2022-09-20T23:42:12.135Z,1.90
2022-09-20T23:44:42.085Z,1.70
2022-09-20T23:47:12.090Z,2.25
2022-09-20T23:49:42.541Z,1.95
2022-09-20T23:52:13.222Z,1.92
2022-09-20T23:54:43.409Z,1.98
2022-09-20T23:57:13.450Z,1.92
2022-09-20T23:59:43.440Z,1.83
